createdAt,value
2019-04-16T00:00:31.961Z,65.50
2019-04-16T00:03:00.214Z,66.00
2019-04-16T00:05:33.365Z,66.30
2019-04-16T00:08:03.254Z,66.60
2019-04-16T00:10:43.883Z,67.00
2019-04-16T00:13:19.665Z,67.20
2019-04-16T00:15:47.879Z,67.50
2019-04-16T00:18:18.628Z,67.60
2019-04-16T00:21:02.864Z,67.90
2019-04-16T00:23:35.376Z,68.10
2019-04-16T00:26:04.053Z,68.60
2019-04-16T00:28:32.327Z,69.10
2019-04-16T00:31:00.535Z,69.10
2019-04-16T00:33:28.750Z,69.30
2019-04-16T00:35:57.090Z,69.30
2019-04-16T00:38:25.305Z,69.50
2019-04-16T00:40:53.626Z,69.50
2019-04-16T00:43:21.843Z,69.70
2019-04-16T00:45:50.046Z,69.90
2019-04-16T00:48:18.362Z,70.20
2019-04-16T00:50:46.572Z,70.20
2019-04-16T00:53:14.801Z,70.20
2019-04-16T00:55:45.180Z,70.20
2019-04-16T00:58:13.098Z,70.20
2019-04-16T01:00:41.314Z,70.40
2019-04-16T01:03:09.519Z,70.40
2019-04-16T01:05:37.737Z,70.70
2019-04-16T01:08:06.083Z,70.90
2019-04-16T01:10:34.293Z,71.00
2019-04-16T01:13:02.517Z,71.20
2019-04-16T01:15:32.108Z,71.50
2019-04-16T01:18:00.926Z,71.70
2019-04-16T01:20:29.238Z,71.80
2019-04-16T01:22:57.595Z,71.90
2019-04-16T01:25:25.871Z,72.10
2019-04-16T01:27:59.817Z,72.40
2019-04-16T01:30:29.984Z,72.90
2019-04-16T01:32:59.846Z,72.70
2019-04-16T01:35:29.711Z,72.60
2019-04-16T01:38:16.162Z,72.70
2019-04-16T01:40:51.797Z,72.80
2019-04-16T01:43:20.065Z,72.90
2019-04-16T01:45:48.245Z,73.10
2019-04-16T01:48:16.598Z,73.30
2019-04-16T01:50:44.824Z,73.40
2019-04-16T01:53:13.123Z,73.40
2019-04-16T01:55:42.613Z,73.70
2019-04-16T01:58:11.075Z,73.70
2019-04-16T02:00:40.033Z,74.10
2019-04-16T02:03:08.692Z,74.00
2019-04-16T02:05:36.888Z,74.00
2019-04-16T02:08:05.138Z,74.00
2019-04-16T02:10:35.492Z,73.90
2019-04-16T02:13:04.085Z,74.00
2019-04-16T02:15:32.810Z,74.10
2019-04-16T02:18:01.074Z,74.80
2019-04-16T02:20:29.369Z,73.90
2019-04-16T02:22:57.600Z,74.00
2019-04-16T02:25:25.797Z,73.90
2019-04-16T02:27:54.206Z,73.90
2019-04-16T02:30:23.931Z,73.90
2019-04-16T02:32:52.126Z,74.10
2019-04-16T02:35:20.347Z,74.00
2019-04-16T02:37:48.557Z,73.80
2019-04-16T02:40:18.766Z,74.00
2019-04-16T02:42:46.883Z,73.90
2019-04-16T02:45:15.079Z,73.80
2019-04-16T02:47:43.406Z,73.90
2019-04-16T02:50:13.562Z,73.60
2019-04-16T02:52:52.635Z,73.60
2019-04-16T02:55:42.530Z,73.90
2019-04-16T02:58:10.664Z,74.20
2019-04-16T03:03:34.567Z,74.00
2019-04-16T03:06:02.803Z,74.30
2019-04-16T03:08:35.634Z,74.80
2019-04-16T03:11:01.054Z,74.60
2019-04-16T03:13:29.278Z,74.80
2019-04-16T03:16:15.595Z,74.70
2019-04-16T03:18:48.464Z,74.60
2019-04-16T03:21:16.858Z,75.00
2019-04-16T03:23:45.073Z,75.20
2019-04-16T03:26:16.385Z,75.40
2019-04-16T03:28:43.229Z,75.60
2019-04-16T03:31:19.372Z,75.70
2019-04-16T03:33:48.135Z,75.80
2019-04-16T03:36:11.316Z,76.00
2019-04-16T03:38:41.995Z,76.00
2019-04-16T03:41:09.551Z,76.00
2019-04-16T03:43:37.758Z,76.20
2019-04-16T03:46:06.106Z,76.40
2019-04-16T03:48:34.315Z,76.50
2019-04-16T03:51:03.670Z,76.60
2019-04-16T03:53:32.672Z,76.70
2019-04-16T03:56:00.919Z,76.60
2019-04-16T03:58:29.130Z,76.60
2019-04-16T04:00:57.430Z,76.70
2019-04-16T04:03:26.155Z,76.60
2019-04-16T04:05:55.926Z,76.80
2019-04-16T04:08:24.605Z,77.10
2019-04-16T04:10:53.063Z,77.40
2019-04-16T04:13:21.535Z,77.30
2019-04-16T04:15:49.761Z,77.40
2019-04-16T04:18:18.380Z,77.30
2019-04-16T04:20:49.497Z,77.20
2019-04-16T04:23:17.009Z,77.40
2019-04-16T04:25:45.243Z,77.50
2019-04-16T04:28:18.485Z,77.50
2019-04-16T04:30:43.399Z,77.80
2019-04-16T04:33:13.486Z,77.70
2019-04-16T04:35:41.711Z,78.00
2019-04-16T04:38:09.937Z,78.20
2019-04-16T04:40:44.839Z,78.10
2019-04-16T04:43:12.425Z,78.40
2019-04-16T04:45:41.535Z,78.40
2019-04-16T04:48:11.439Z,78.50
2019-04-16T04:50:39.821Z,78.50
2019-04-16T04:53:08.411Z,78.50
2019-04-16T04:55:36.751Z,78.50
2019-04-16T04:58:05.182Z,78.40
2019-04-16T05:00:33.404Z,78.50
2019-04-16T05:03:01.634Z,78.50
2019-04-16T05:05:37.164Z,78.50
2019-04-16T05:08:05.606Z,78.60
2019-04-16T05:10:36.686Z,78.50
2019-04-16T05:13:03.762Z,78.30
2019-04-16T05:15:32.458Z,78.00
2019-04-16T05:18:00.725Z,78.00
2019-04-16T05:20:29.968Z,78.60
2019-04-16T05:22:58.410Z,78.80
2019-04-16T05:25:26.650Z,78.20
2019-04-16T05:27:54.876Z,78.20
2019-04-16T05:30:23.309Z,78.00
2019-04-16T05:32:51.855Z,78.00
2019-04-16T05:35:20.142Z,78.00
2019-04-16T05:37:51.320Z,77.90
2019-04-16T05:40:18.566Z,77.70
2019-04-16T05:42:47.010Z,77.80
2019-04-16T05:45:17.105Z,77.70
2019-04-16T05:47:48.753Z,77.60
2019-04-16T05:50:15.280Z,77.80
2019-04-16T05:52:43.678Z,77.20
2019-04-16T05:55:17.709Z,77.20
2019-04-16T05:57:47.861Z,77.00
2019-04-16T06:00:23.922Z,76.70
2019-04-16T06:02:52.138Z,76.90
2019-04-16T06:05:20.343Z,76.80
2019-04-16T06:07:48.582Z,76.90
2019-04-16T06:10:18.146Z,76.90
2019-04-16T06:12:48.358Z,76.90
2019-04-16T06:15:30.287Z,76.90
2019-04-16T06:18:18.049Z,76.50
2019-04-16T06:20:52.709Z,77.00
2019-04-16T06:23:37.516Z,76.10
2019-04-16T06:26:24.007Z,76.40
2019-04-16T06:29:06.128Z,76.20
2019-04-16T06:31:40.016Z,75.90
2019-04-16T06:34:29.047Z,75.70
2019-04-16T06:36:58.897Z,76.00
2019-04-16T06:39:30.008Z,75.70
2019-04-16T06:42:21.272Z,75.50
2019-04-16T06:44:48.507Z,75.40
2019-04-16T06:47:18.545Z,75.20
2019-04-16T06:49:50.998Z,74.90
2019-04-16T06:52:36.448Z,75.10
2019-04-16T06:55:25.992Z,75.00
2019-04-16T06:57:59.357Z,74.80
2019-04-16T07:00:47.685Z,74.70
2019-04-16T07:03:33.738Z,74.70
2019-04-16T07:06:04.200Z,75.00
2019-04-16T07:08:50.887Z,74.40
2019-04-16T07:11:20.803Z,74.10
2019-04-16T07:13:49.022Z,73.60
2019-04-16T07:16:17.232Z,73.50
2019-04-16T07:18:45.448Z,73.50
2019-04-16T07:21:14.497Z,73.20
2019-04-16T07:23:45.791Z,73.50
2019-04-16T07:26:15.001Z,72.90
2019-04-16T07:28:59.020Z,72.30
2019-04-16T07:31:35.848Z,72.70
2019-04-16T07:34:22.109Z,72.70
2019-04-16T07:37:07.186Z,72.40
2019-04-16T07:39:42.835Z,72.60
2019-04-16T07:42:22.118Z,72.70
2019-04-16T07:44:56.030Z,72.40
2019-04-16T07:47:43.963Z,72.10
2019-04-16T07:50:32.437Z,72.00
2019-04-16T07:53:05.172Z,72.10
2019-04-16T07:55:35.084Z,71.70
2019-04-16T07:58:03.305Z,71.80
2019-04-16T08:00:31.541Z,72.00
2019-04-16T08:03:00.003Z,71.60
2019-04-16T08:05:29.014Z,71.90
2019-04-16T08:07:57.861Z,72.60
2019-04-16T08:10:26.089Z,72.60
2019-04-16T08:12:56.928Z,72.00
2019-04-16T08:15:25.999Z,71.80
2019-04-16T08:17:54.264Z,71.30
2019-04-16T08:20:22.489Z,71.30
2019-04-16T08:22:52.429Z,71.70
2019-04-16T08:25:22.291Z,71.20
2019-04-16T08:27:53.476Z,70.90
2019-04-16T08:30:20.641Z,70.60
2019-04-16T08:32:49.674Z,69.90
2019-04-16T08:35:18.099Z,70.40
2019-04-16T08:37:49.121Z,70.40
2019-04-16T08:40:16.497Z,70.00
2019-04-16T08:42:45.157Z,69.10
2019-04-16T08:45:13.455Z,69.10
2019-04-16T08:47:44.543Z,69.00
2019-04-16T08:50:12.381Z,68.50
2019-04-16T08:52:41.714Z,68.70
2019-04-16T08:55:10.954Z,69.20
2019-04-16T08:57:39.194Z,69.30
2019-04-16T09:00:14.409Z,68.90
2019-04-16T09:02:39.303Z,68.50
2019-04-16T09:05:11.299Z,67.50
2019-04-16T09:07:40.387Z,67.30
2019-04-16T09:10:18.072Z,67.10
2019-04-16T09:12:45.884Z,65.60
2019-04-16T09:15:13.739Z,65.40
2019-04-16T09:17:43.550Z,65.30
2019-04-16T09:20:13.414Z,66.40
2019-04-16T09:22:48.739Z,65.30
2019-04-16T09:25:14.859Z,65.60
2019-04-16T09:27:44.713Z,65.90
2019-04-16T09:30:31.086Z,65.10
2019-04-16T09:33:03.670Z,65.30
2019-04-16T09:35:33.539Z,66.10
2019-04-16T09:38:09.344Z,64.90
2019-04-16T09:40:54.603Z,64.60
2019-04-16T09:43:30.608Z,64.70
2019-04-16T09:46:09.612Z,63.60
2019-04-16T09:48:34.010Z,63.70
2019-04-16T09:50:58.731Z,62.70
2019-04-16T09:53:33.973Z,62.80
2019-04-16T09:55:58.635Z,62.30
2019-04-16T09:58:26.952Z,62.90
2019-04-16T10:01:11.282Z,62.60
2019-04-16T10:03:44.163Z,63.30
2019-04-16T10:06:11.688Z,62.30
2019-04-16T10:08:44.530Z,61.70
2019-04-16T10:11:10.426Z,61.10
2019-04-16T10:13:38.717Z,61.40
2019-04-16T10:16:07.183Z,61.40
2019-04-16T10:18:36.032Z,61.50
2019-04-16T10:21:04.665Z,62.20
2019-04-16T10:23:43.598Z,61.70
2019-04-16T10:26:11.829Z,62.00
2019-04-16T10:28:47.534Z,60.70
2019-04-16T10:31:20.886Z,59.80
2019-04-16T10:33:50.101Z,58.50
2019-04-16T10:36:18.383Z,59.50
2019-04-16T10:38:48.304Z,59.30
2019-04-16T10:41:18.213Z,57.60
2019-04-16T10:43:48.224Z,55.40
2019-04-16T10:46:18.133Z,55.50
2019-04-16T10:49:04.992Z,54.10
2019-04-16T10:51:34.957Z,53.80
2019-04-16T10:54:07.760Z,53.90
2019-04-16T10:56:57.875Z,54.80
2019-04-16T10:59:41.690Z,54.80
2019-04-16T11:02:11.648Z,54.30
2019-04-16T11:04:43.279Z,53.60
2019-04-16T11:07:13.177Z,53.50
2019-04-16T11:09:41.867Z,50.90
2019-04-16T11:12:10.305Z,51.10
2019-04-16T11:14:38.639Z,52.10
2019-04-16T11:17:06.962Z,49.70
2019-04-16T11:19:35.248Z,49.30
2019-04-16T11:22:05.109Z,49.40
2019-04-16T11:24:33.841Z,48.90
2019-04-16T11:27:02.301Z,48.30
2019-04-16T11:29:30.580Z,45.60
2019-04-16T11:31:59.151Z,44.70
2019-04-16T11:34:27.459Z,44.40
2019-04-16T11:36:58.411Z,44.60
2019-04-16T11:39:25.834Z,44.80
2019-04-16T11:41:54.050Z,45.50
2019-04-16T11:44:22.330Z,46.60
2019-04-16T11:46:50.823Z,44.90
2019-04-16T11:49:20.790Z,42.70
2019-04-16T11:51:49.333Z,44.50
2019-04-16T11:54:17.684Z,42.60
2019-04-16T11:56:45.923Z,39.50
2019-04-16T11:59:14.276Z,40.00
2019-04-16T12:01:44.486Z,39.70
2019-04-16T12:04:16.733Z,39.30
2019-04-16T12:06:49.604Z,39.50
2019-04-16T12:09:35.543Z,39.40
2019-04-16T12:12:20.492Z,40.10
2019-04-16T12:15:07.065Z,39.90
2019-04-16T12:17:55.501Z,40.70
2019-04-16T12:20:41.896Z,42.80
2019-04-16T12:23:30.256Z,41.80
2019-04-16T12:26:00.171Z,41.70
2019-04-16T12:28:42.193Z,39.30
2019-04-16T12:31:10.704Z,38.40
2019-04-16T12:33:40.755Z,38.80
2019-04-16T12:36:22.954Z,39.10
2019-04-16T12:39:09.479Z,38.60
2019-04-16T12:41:48.467Z,38.40
2019-04-16T12:44:45.221Z,39.10
2019-04-16T12:47:19.659Z,40.50
2019-04-16T12:50:05.950Z,39.20
2019-04-16T12:52:45.064Z,37.30
2019-04-16T12:55:32.519Z,35.80
2019-04-16T12:58:02.735Z,34.00
2019-04-16T13:00:32.665Z,33.90
2019-04-16T13:03:18.750Z,34.50
2019-04-16T13:05:53.896Z,34.10
2019-04-16T13:08:40.153Z,34.20
2019-04-16T13:11:16.070Z,34.50
2019-04-16T13:13:51.702Z,35.60
2019-04-16T13:16:39.665Z,35.00
2019-04-16T13:19:12.508Z,34.90
2019-04-16T13:21:48.030Z,33.40
2019-04-16T13:24:23.998Z,32.60
2019-04-16T13:27:03.188Z,33.10
2019-04-16T13:29:31.730Z,33.70
2019-04-16T13:32:00.005Z,34.80
2019-04-16T13:34:28.289Z,34.40
2019-04-16T13:36:59.481Z,33.20
2019-04-16T13:39:31.054Z,32.60
2019-04-16T13:41:59.601Z,32.10
2019-04-16T13:44:29.513Z,32.30
2019-04-16T13:47:01.182Z,32.30
2019-04-16T13:49:35.539Z,33.40
2019-04-16T13:52:03.795Z,32.20
2019-04-16T13:54:45.555Z,32.50
2019-04-16T13:57:18.159Z,32.50
2019-04-16T14:00:04.353Z,32.60
2019-04-16T14:02:51.245Z,33.10
2019-04-16T14:05:19.831Z,34.20
2019-04-16T14:07:48.204Z,32.70
2019-04-16T14:10:16.599Z,31.90
2019-04-16T14:12:44.881Z,30.70
2019-04-16T14:15:13.227Z,30.50
2019-04-16T14:17:52.239Z,30.60
2019-04-16T14:20:12.700Z,31.10
2019-04-16T14:22:41.554Z,31.80
2019-04-16T14:25:09.813Z,31.70
2019-04-16T14:27:38.087Z,30.90
2019-04-16T14:30:10.377Z,30.90
2019-04-16T14:32:38.705Z,31.80
2019-04-16T14:35:14.997Z,29.60
2019-04-16T14:37:43.260Z,30.80
2019-04-16T14:40:16.050Z,30.40
2019-04-16T14:42:44.315Z,31.50
2019-04-16T14:45:14.235Z,32.10
2019-04-16T14:47:42.866Z,31.20
2019-04-16T14:50:13.353Z,30.50
2019-04-16T14:52:41.183Z,30.00
2019-04-16T14:55:14.191Z,29.20
2019-04-16T14:58:02.645Z,29.40
2019-04-16T15:00:49.170Z,30.20
2019-04-16T15:03:34.247Z,30.00
2019-04-16T15:06:13.175Z,29.40
2019-04-16T15:08:49.409Z,26.80
2019-04-16T15:11:19.301Z,27.20
2019-04-16T15:13:54.872Z,27.70
2019-04-16T15:16:39.725Z,27.90
2019-04-16T15:19:27.775Z,28.00
2019-04-16T15:22:14.541Z,28.90
2019-04-16T15:24:47.415Z,29.30
2019-04-16T15:27:17.391Z,28.60
2019-04-16T15:30:03.884Z,29.50
2019-04-16T15:32:42.789Z,29.30
2019-04-16T15:35:14.885Z,29.80
2019-04-16T15:37:45.222Z,30.00
2019-04-16T15:40:15.408Z,29.50
2019-04-16T15:43:00.561Z,29.40
2019-04-16T15:45:30.485Z,28.60
2019-04-16T15:48:17.979Z,29.90
2019-04-16T15:51:00.805Z,29.80
2019-04-16T15:53:30.766Z,30.00
2019-04-16T15:56:00.671Z,30.00
2019-04-16T15:58:45.555Z,29.50
2019-04-16T16:01:30.799Z,30.00
2019-04-16T16:04:09.713Z,30.20
2019-04-16T16:06:39.642Z,30.50
2019-04-16T16:09:09.535Z,30.00
2019-04-16T16:11:44.488Z,30.00
2019-04-16T16:14:12.114Z,29.90
2019-04-16T16:16:42.039Z,30.30
2019-04-16T16:19:12.067Z,30.30
2019-04-16T16:21:40.560Z,30.60
2019-04-16T16:24:08.886Z,30.60
2019-04-16T16:26:37.101Z,30.50
2019-04-16T16:29:05.342Z,30.50
2019-04-16T16:31:35.654Z,30.20
2019-04-16T16:34:03.583Z,30.20
2019-04-16T16:36:31.960Z,29.70
2019-04-16T16:39:00.440Z,29.70
2019-04-16T16:41:28.663Z,29.80
2019-04-16T16:43:56.990Z,30.30
2019-04-16T16:46:32.872Z,29.60
2019-04-16T16:49:01.396Z,29.70
2019-04-16T16:51:29.699Z,29.00
2019-04-16T16:54:17.921Z,29.60
2019-04-16T16:57:08.671Z,29.10
2019-04-16T16:59:53.214Z,30.00
2019-04-16T17:02:38.046Z,29.40
2019-04-16T17:05:08.528Z,29.70
2019-04-16T17:07:36.947Z,29.90
2019-04-16T17:10:06.764Z,29.80
2019-04-16T17:12:35.087Z,29.00
2019-04-16T17:15:03.918Z,29.20
2019-04-16T17:17:32.188Z,29.10
2019-04-16T17:20:00.774Z,29.50
2019-04-16T17:22:29.037Z,29.20
2019-04-16T17:24:57.426Z,29.10
2019-04-16T17:27:25.728Z,29.40
2019-04-16T17:29:53.979Z,29.10
2019-04-16T17:32:22.390Z,29.40
2019-04-16T17:34:51.529Z,29.40
2019-04-16T17:37:21.451Z,29.10
2019-04-16T17:39:54.521Z,29.80
2019-04-16T17:42:27.700Z,29.60
2019-04-16T17:45:14.036Z,30.00
2019-04-16T17:48:00.442Z,29.90
2019-04-16T17:50:46.798Z,29.80
2019-04-16T17:53:25.980Z,30.00
2019-04-16T17:56:13.994Z,30.10
2019-04-16T17:58:53.126Z,30.00
2019-04-16T18:01:40.372Z,30.10
2019-04-16T18:04:13.651Z,30.10
2019-04-16T18:06:46.502Z,30.40
2019-04-16T18:09:18.193Z,30.80
2019-04-16T18:11:50.939Z,30.60
2019-04-16T18:14:37.114Z,30.80
2019-04-16T18:17:12.783Z,30.70
2019-04-16T18:19:42.735Z,30.60
2019-04-16T18:22:29.067Z,31.00
2019-04-16T18:24:59.003Z,30.80
2019-04-16T18:27:29.518Z,31.30
2019-04-16T18:30:16.093Z,31.00
2019-04-16T18:32:49.393Z,31.10
2019-04-16T18:35:19.279Z,31.50
2019-04-16T18:37:49.935Z,31.70
2019-04-16T18:40:25.934Z,31.80
2019-04-16T18:43:01.511Z,32.20
2019-04-16T18:45:47.420Z,32.50
2019-04-16T18:48:23.095Z,32.80
2019-04-16T18:50:51.491Z,33.30
2019-04-16T18:53:19.933Z,33.70
2019-04-16T18:55:48.288Z,34.40
2019-04-16T18:58:16.561Z,34.70
2019-04-16T19:00:46.444Z,35.10
2019-04-16T19:03:15.788Z,35.40
2019-04-16T19:05:44.191Z,35.50
2019-04-16T19:08:12.883Z,35.80
2019-04-16T19:10:41.101Z,35.80
2019-04-16T19:13:11.596Z,36.40
2019-04-16T19:15:39.454Z,36.50
2019-04-16T19:18:19.243Z,36.50
2019-04-16T19:20:37.656Z,36.40
2019-04-16T19:23:05.868Z,36.40
2019-04-16T19:25:34.300Z,36.80
2019-04-16T19:28:06.173Z,36.90
2019-04-16T19:30:33.890Z,37.20
2019-04-16T19:33:02.358Z,37.50
2019-04-16T19:35:30.645Z,37.50
2019-04-16T19:37:59.123Z,37.30
2019-04-16T19:40:30.201Z,37.30
2019-04-16T19:43:02.290Z,37.70
2019-04-16T19:45:28.480Z,37.70
2019-04-16T19:48:00.285Z,37.50
2019-04-16T19:50:33.102Z,37.70
2019-04-16T19:52:56.909Z,37.90
2019-04-16T19:55:25.358Z,38.30
2019-04-16T19:57:56.740Z,38.90
2019-04-16T20:00:23.514Z,38.60
2019-04-16T20:02:51.795Z,39.30
2019-04-16T20:05:20.098Z,39.40
2019-04-16T20:07:48.412Z,39.30
2019-04-16T20:10:16.644Z,39.30
2019-04-16T20:12:44.923Z,39.30
2019-04-16T20:15:13.147Z,39.40
2019-04-16T20:17:42.394Z,39.80
2019-04-16T20:20:10.607Z,39.80
2019-04-16T20:22:38.828Z,40.20
2019-04-16T20:25:07.439Z,39.80
2019-04-16T20:27:36.284Z,40.20
2019-04-16T20:30:06.758Z,40.30
2019-04-16T20:32:35.120Z,41.30
2019-04-16T20:35:03.785Z,41.00
2019-04-16T20:37:32.080Z,40.30
2019-04-16T20:40:00.317Z,40.50
2019-04-16T20:42:28.552Z,40.70
2019-04-16T20:44:56.783Z,41.20
2019-04-16T20:47:24.998Z,42.10
2019-04-16T20:49:53.207Z,42.50
2019-04-16T20:52:21.454Z,43.00
2019-04-16T20:54:51.366Z,43.50
2019-04-16T20:57:19.582Z,44.10
2019-04-16T20:59:47.876Z,44.60
2019-04-16T21:02:16.275Z,45.00
2019-04-16T21:04:44.502Z,45.50
2019-04-16T21:07:15.070Z,46.00
2019-04-16T21:09:42.671Z,46.20
2019-04-16T21:12:13.287Z,46.60
2019-04-16T21:14:40.839Z,46.80
2019-04-16T21:17:09.097Z,47.10
2019-04-16T21:19:46.648Z,47.50
2019-04-16T21:22:15.893Z,47.60
2019-04-16T21:24:44.856Z,47.90
2019-04-16T21:27:13.087Z,48.10
2019-04-16T21:29:41.325Z,48.00
2019-04-16T21:32:17.485Z,48.00
2019-04-16T21:34:47.534Z,48.20
2019-04-16T21:37:23.228Z,48.10
2019-04-16T21:40:01.990Z,48.30
2019-04-16T21:42:34.345Z,48.60
2019-04-16T21:45:00.166Z,48.80
2019-04-16T21:47:28.390Z,48.80
2019-04-16T21:49:56.600Z,48.80
2019-04-16T21:52:24.825Z,48.90
2019-04-16T21:54:53.048Z,49.00
2019-04-16T21:57:21.261Z,48.90
2019-04-16T21:59:50.340Z,49.20
2019-04-16T22:02:34.639Z,49.30
2019-04-16T22:05:04.598Z,49.10
2019-04-16T22:07:32.838Z,49.20
2019-04-16T22:10:01.042Z,49.20
2019-04-16T22:12:29.305Z,49.30
2019-04-16T22:14:57.573Z,49.10
2019-04-16T22:17:25.837Z,49.50
2019-04-16T22:20:00.591Z,49.40
2019-04-16T22:22:27.319Z,50.30
2019-04-16T22:24:54.921Z,49.50
2019-04-16T22:27:23.874Z,49.40
2019-04-16T22:29:52.275Z,49.90
2019-04-16T22:32:20.491Z,49.60
2019-04-16T22:34:48.713Z,50.10
2019-04-16T22:37:16.934Z,50.00
2019-04-16T22:39:52.760Z,49.90
2019-04-16T22:42:22.626Z,49.90
2019-04-16T22:44:58.399Z,49.80
2019-04-16T22:47:30.990Z,50.20
2019-04-16T22:50:13.860Z,50.00
2019-04-16T22:52:29.161Z,50.10
2019-04-16T22:54:57.562Z,50.00
2019-04-16T22:57:25.770Z,50.10
2019-04-16T22:59:54.068Z,50.00
2019-04-16T23:02:26.853Z,50.00
2019-04-16T23:04:58.532Z,50.00
2019-04-16T23:07:25.016Z,50.10
2019-04-16T23:09:53.237Z,50.40
2019-04-16T23:12:21.468Z,50.50
2019-04-16T23:14:49.749Z,50.70
2019-04-16T23:17:18.870Z,50.70
2019-04-16T23:19:47.130Z,51.10
2019-04-16T23:22:15.472Z,50.90
2019-04-16T23:24:43.959Z,51.00
2019-04-16T23:27:12.482Z,50.70
2019-04-16T23:29:40.698Z,50.80
2019-04-16T23:32:08.912Z,51.20
2019-04-16T23:34:38.000Z,51.30
2019-04-16T23:37:07.121Z,51.50
2019-04-16T23:39:36.715Z,51.60
2019-04-16T23:42:05.377Z,51.20
2019-04-16T23:44:44.418Z,51.20
2019-04-16T23:47:14.300Z,51.60
2019-04-16T23:49:50.005Z,51.30
2019-04-16T23:52:31.864Z,51.80
2019-04-16T23:55:00.500Z,51.50
2019-04-16T23:57:30.380Z,51.80
